Time;durP1;ratioP1;P1;durP2;ratioP2;P2;SDS_P1;SDS_P2;PMS_P1;PMS_P2;Temp;Humidity;BMP_temperature;BMP_pressure;BME280_temperature;BME280_humidity;BME280_pressure;Samples;Min_cycle;Max_cycle;Signal;HPM_P1;HPM_P2
2022/08/16 00:00:18;;;;;;;4.05;2.35;;;;;;;20.92;59.67;98808.47;346838;28;1973;-65
2022/08/16 00:00:35;;;;;;;3.63;2.38;;;;;;;20.94;59.75;98800.44;348663;28;1380;-66
2022/08/16 00:00:50;;;;;;;3.67;2.35;;;;;;;20.98;59.56;98807.09;347980;28;1225;-66
2022/08/16 00:01:03;;;;;;;3.50;2.22;;;;;;;21.01;59.25;98804.19;348077;28;1760;-66
2022/08/16 00:01:19;;;;;;;3.00;2.28;;;;;;;21.06;58.79;98803.78;348194;28;901;-66
2022/08/16 00:01:31;;;;;;;3.17;2.30;;;;;;;21.07;58.83;98801.00;348923;28;1272;-66
2022/08/16 00:01:47;;;;;;;2.97;2.05;;;;;;;21.06;58.97;98799.31;348780;28;859;-66
2022/08/16 00:02:00;;;;;;;2.92;2.00;;;;;;;21.08;58.76;98797.38;348334;28;1655;-66
2022/08/16 00:02:23;;;;;;;3.10;2.13;;;;;;;21.05;58.84;98802.94;347749;28;1225;-66
2022/08/16 00:02:38;;;;;;;4.07;2.15;;;;;;;21.00;58.75;98799.88;345406;28;1082;-65
2022/08/16 00:02:53;;;;;;;4.43;2.30;;;;;;;20.96;58.77;98798.47;346231;28;1060;-66
2022/08/16 00:03:06;;;;;;;3.60;2.40;;;;;;;20.96;58.79;98803.75;346171;28;1621;-66
2022/08/16 00:03:24;;;;;;;3.25;2.38;;;;;;;20.97;58.84;98801.94;346822;28;999;-66
2022/08/16 00:03:36;;;;;;;2.92;2.08;;;;;;;20.97;58.52;98800.16;347489;28;1855;-66
2022/08/16 00:03:48;;;;;;;2.75;1.98;;;;;;;20.97;58.33;98807.22;347192;28;1054;-66
2022/08/16 00:04:00;;;;;;;2.50;1.90;;;;;;;20.92;58.72;98797.91;345536;28;1761;-64
2022/08/16 00:04:16;;;;;;;3.83;2.22;;;;;;;20.85;58.86;98799.44;344880;28;1733;-66
2022/08/16 00:04:29;;;;;;;3.35;2.15;;;;;;;20.87;59.11;98801.97;346059;28;1790;-66
2022/08/16 00:04:41;;;;;;;3.42;2.08;;;;;;;20.87;58.71;98797.50;346197;28;1232;-65
2022/08/16 00:04:53;;;;;;;3.28;2.13;;;;;;;20.88;58.57;98801.81;347007;28;1022;-65
2022/08/16 00:05:12;;;;;;;4.15;2.30;;;;;;;20.84;59.21;98796.94;347436;28;1740;-67
2022/08/16 00:05:26;;;;;;;2.97;2.20;;;;;;;20.85;59.11;98803.91;346861;28;2103;-66
2022/08/16 00:05:45;;;;;;;2.83;2.10;;;;;;;20.86;58.96;98808.19;347298;28;1293;-65
2022/08/16 00:05:59;;;;;;;2.97;2.10;;;;;;;20.86;58.98;98805.56;346561;28;1672;-66
2022/08/16 00:06:13;;;;;;;2.85;1.90;;;;;;;20.90;59.00;98793.75;347381;28;1648;-66
2022/08/16 00:06:28;;;;;;;3.00;2.10;;;;;;;20.92;58.83;98802.38;347806;28;1143;-66
2022/08/16 00:06:40;;;;;;;3.92;2.30;;;;;;;20.94;58.54;98800.44;346231;28;2011;-66
2022/08/16 00:06:55;;;;;;;3.85;2.33;;;;;;;20.94;58.20;98797.78;347357;28;1860;-66
2022/08/16 00:07:07;;;;;;;4.10;2.30;;;;;;;20.96;58.35;98801.13;346599;28;924;-66
2022/08/16 00:07:20;;;;;;;4.22;2.10;;;;;;;20.94;58.19;98800.44;346545;28;1253;-66
2022/08/16 00:07:32;;;;;;;4.38;2.05;;;;;;;20.95;58.39;98802.09;347663;28;1173;-66
2022/08/16 00:07:46;;;;;;;3.83;2.00;;;;;;;20.96;58.39;98803.75;347520;28;1250;-67
2022/08/16 00:07:58;;;;;;;2.60;1.95;;;;;;;20.95;58.17;98802.09;347131;28;1747;-66
2022/08/16 00:08:16;;;;;;;2.53;2.15;;;;;;;20.92;58.10;98802.38;346930;28;2138;-66
2022/08/16 00:08:48;;;;;;;2.92;2.05;;;;;;;20.86;58.46;98797.63;344606;28;1026;-66
2022/08/16 00:09:04;;;;;;;2.42;2.00;;;;;;;20.87;58.44;98802.78;346514;28;2125;-66
2022/08/16 00:09:16;;;;;;;2.67;2.20;;;;;;;20.87;58.48;98807.25;346392;28;1594;-66
2022/08/16 00:09:28;;;;;;;6.25;2.20;;;;;;;20.89;58.36;98802.66;347400;28;1580;-66
2022/08/16 00:09:40;;;;;;;7.13;2.10;;;;;;;20.89;58.40;98802.66;346600;28;1857;-66
2022/08/16 00:09:52;;;;;;;7.57;2.20;;;;;;;20.86;58.61;98801.09;346890;28;1822;-66
2022/08/16 00:10:08;;;;;;;3.83;2.28;;;;;;;20.88;58.63;98807.09;347506;28;1374;-66
2022/08/16 00:10:32;;;;;;;4.43;2.28;;;;;;;20.86;58.51;98806.38;347681;28;1117;-66
2022/08/16 00:10:45;;;;;;;4.15;2.20;;;;;;;20.85;58.59;98811.81;347426;28;1070;-66
2022/08/16 00:10:57;;;;;;;3.13;2.30;;;;;;;20.87;58.56;98809.88;346662;28;1770;-66
2022/08/16 00:11:10;;;;;;;2.88;2.20;;;;;;;20.86;58.48;98802.91;346398;28;1509;-66
2022/08/16 00:11:26;;;;;;;2.47;2.03;;;;;;;20.86;58.73;98810.84;346493;28;1111;-66
2022/08/16 00:11:40;;;;;;;2.85;2.03;;;;;;;20.88;58.63;98803.63;346680;28;1170;-66
2022/08/16 00:11:52;;;;;;;2.70;2.10;;;;;;;20.86;58.98;98805.56;346395;28;2023;-66
2022/08/16 00:12:06;;;;;;;2.55;2.30;;;;;;;20.89;58.71;98818.50;347079;28;1771;-66
2022/08/16 00:12:18;;;;;;;2.92;2.30;;;;;;;20.92;58.65;98807.66;347594;28;1202;-66
2022/08/16 00:12:32;;;;;;;3.78;2.50;;;;;;;20.89;58.93;98808.78;347362;28;1500;-66
2022/08/16 00:12:45;;;;;;;3.78;2.45;;;;;;;20.89;59.10;98810.59;347538;28;1062;-67
2022/08/16 00:13:05;;;;;;;3.55;2.10;;;;;;;20.91;58.72;98806.00;344955;28;1852;-66
2022/08/16 00:13:18;;;;;;;3.53;2.25;;;;;;;20.92;58.45;98805.00;344861;28;1027;-65
2022/08/16 00:13:32;;;;;;;3.25;2.42;;;;;;;20.90;58.91;98807.78;345094;28;1204;-66
2022/08/16 00:13:53;;;;;;;3.25;2.38;;;;;;;20.89;59.40;98814.06;345734;28;1142;-66
2022/08/16 00:14:11;;;;;;;3.53;2.10;;;;;;;20.88;59.62;98808.91;346086;28;1689;-66
2022/08/16 00:14:28;;;;;;;2.88;2.00;;;;;;;20.88;59.62;98811.53;346106;28;1259;-66
2022/08/16 00:14:41;;;;;;;3.10;2.30;;;;;;;20.90;59.33;98809.59;347706;28;1098;-66
2022/08/16 00:14:56;;;;;;;3.25;2.30;;;;;;;20.89;59.29;98814.06;347658;28;1030;-66
2022/08/16 00:15:14;;;;;;;2.83;2.13;;;;;;;20.91;59.46;98811.28;347314;28;1585;-66
2022/08/16 00:15:42;;;;;;;2.53;2.00;;;;;;;20.87;59.15;98812.53;346813;28;1724;-65
2022/08/16 00:16:05;;;;;;;5.00;2.22;;;;;;;20.88;59.08;98812.38;347416;28;1618;-66
2022/08/16 00:16:37;;;;;;;2.75;2.30;;;;;;;20.91;59.22;98811.28;346315;28;1867;-66
2022/08/16 00:17:09;;;;;;;2.40;2.20;;;;;;;20.91;59.23;98811.28;347449;28;1594;-66
2022/08/16 00:17:30;;;;;;;2.75;2.38;;;;;;;20.95;59.31;98812.69;346609;28;1049;-66
2022/08/16 00:18:03;;;;;;;3.28;2.40;;;;;;;20.98;59.13;98808.91;346453;28;1790;-66
2022/08/16 00:18:20;;;;;;;4.20;2.42;;;;;;;20.99;59.00;98798.22;347049;28;1681;-66
2022/08/16 00:18:40;;;;;;;3.92;2.28;;;;;;;20.99;59.39;98800.88;346407;28;1794;-66
2022/08/16 00:18:52;;;;;;;3.40;2.25;;;;;;;21.01;59.41;98801.56;347562;28;1170;-66
2022/08/16 00:19:05;;;;;;;3.22;2.28;;;;;;;21.03;59.09;98806.72;346411;28;1901;-66
2022/08/16 00:19:21;;;;;;;2.75;2.20;;;;;;;21.04;59.10;98806.56;345396;28;1833;-65
2022/08/16 00:19:34;;;;;;;3.00;2.13;;;;;;;21.05;58.64;98802.94;344817;28;1103;-66
2022/08/16 00:19:53;;;;;;;5.28;2.50;;;;;;;21.06;58.82;98804.59;345117;28;1059;-66
2022/08/16 00:20:10;;;;;;;4.28;2.38;;;;;;;21.05;59.07;98805.59;345952;28;1481;-66
2022/08/16 00:20:24;;;;;;;2.80;2.22;;;;;;;21.06;58.84;98803.78;347121;28;1110;-66
2022/08/16 00:20:39;;;;;;;2.78;2.33;;;;;;;21.07;58.94;98808.94;347004;28;2066;-66
2022/08/16 00:20:51;;;;;;;3.38;2.30;;;;;;;21.07;59.30;98805.47;347422;28;1498;-65
2022/08/16 00:21:04;;;;;;;3.78;2.40;;;;;;;21.10;58.78;98805.19;346636;28;1899;-67
2022/08/16 00:21:16;;;;;;;4.20;2.40;;;;;;;21.11;58.74;98812.97;346882;28;2003;-66
2022/08/16 00:21:29;;;;;;;3.53;2.30;;;;;;;21.12;58.80;98806.69;348073;28;1000;-66
2022/08/16 00:21:43;;;;;;;3.83;2.20;;;;;;;21.12;58.72;98806.69;347242;28;1677;-65
2022/08/16 00:21:56;;;;;;;3.60;2.35;;;;;;;21.15;58.46;98803.78;347231;28;1765;-65
2022/08/16 00:22:17;;;;;;;2.85;2.40;;;;;;;21.18;58.43;98807.13;347703;28;1332;-66
2022/08/16 00:22:38;;;;;;;3.33;2.40;;;;;;;21.20;58.19;98810.47;347509;28;1699;-66
2022/08/16 00:22:53;;;;;;;2.58;2.30;;;;;;;21.21;58.51;98806.84;346839;28;1747;-66
2022/08/16 00:23:06;;;;;;;2.58;2.38;;;;;;;21.19;59.17;98803.50;347521;28;1765;-66
2022/08/16 00:23:21;;;;;;;4.05;2.50;;;;;;;21.27;58.63;98806.28;347565;28;1048;-66
2022/08/16 00:23:45;;;;;;;2.60;2.40;;;;;;;21.31;58.35;98807.72;347923;28;1209;-66
2022/08/16 00:23:58;;;;;;;2.88;2.20;;;;;;;21.32;58.33;98804.91;345509;28;2016;-66
2022/08/16 00:24:15;;;;;;;3.33;2.20;;;;;;;21.33;57.86;98805.75;346352;28;1882;-66
2022/08/16 00:24:44;;;;;;;3.38;2.40;;;;;;;21.32;58.08;98804.06;345027;28;1863;-66
2022/08/16 00:24:57;;;;;;;3.40;2.40;;;;;;;21.34;58.16;98802.13;346645;28;1853;-66
2022/08/16 00:25:12;;;;;;;3.08;2.28;;;;;;;21.34;58.37;98804.75;347001;28;1768;-65
2022/08/16 00:25:25;;;;;;;2.70;2.40;;;;;;;21.29;58.44;98804.38;345890;28;1091;-66
2022/08/16 00:25:57;;;;;;;3.22;2.25;;;;;;;21.33;57.86;98805.75;345730;28;1790;-66
2022/08/16 00:26:29;;;;;;;3.22;2.58;;;;;;;21.35;57.85;98812.56;345833;28;2040;-66
2022/08/16 00:26:48;;;;;;;3.15;2.45;;;;;;;21.36;57.94;98805.47;346506;28;1252;-65
2022/08/16 00:27:03;;;;;;;4.60;2.47;;;;;;;21.36;57.77;98805.47;347032;28;1715;-66
2022/08/16 00:27:15;;;;;;;5.15;2.40;;;;;;;21.37;57.88;98806.28;347309;28;1913;-65
2022/08/16 00:27:28;;;;;;;3.92;2.30;;;;;;;21.37;57.88;98809.78;347687;28;1070;-66
2022/08/16 00:27:42;;;;;;;3.53;2.30;;;;;;;21.34;57.85;98805.59;347427;28;1826;-66
2022/08/16 00:27:59;;;;;;;2.55;2.35;;;;;;;21.32;57.93;98804.91;346897;28;1790;-65
2022/08/16 00:28:12;;;;;;;2.80;2.47;;;;;;;21.33;57.82;98803.13;346820;28;1833;-65
2022/08/16 00:28:25;;;;;;;3.05;2.50;;;;;;;21.33;57.61;98805.75;347157;28;2004;-66
2022/08/16 00:28:40;;;;;;;2.60;2.38;;;;;;;21.29;58.09;98810.47;347277;28;1627;-66
2022/08/16 00:28:57;;;;;;;2.33;2.13;;;;;;;21.30;58.10;98811.31;347113;28;1767;-66
2022/08/16 00:29:13;;;;;;;2.50;2.30;;;;;;;21.30;57.62;98806.03;347213;28;1582;-65
2022/08/16 00:29:27;;;;;;;3.08;2.40;;;;;;;21.32;57.77;98809.34;346379;28;1674;-66
2022/08/16 00:29:41;;;;;;;3.30;2.30;;;;;;;21.35;57.82;98814.38;348549;28;1634;-66
2022/08/16 00:29:53;;;;;;;3.63;2.40;;;;;;;21.34;58.09;98804.75;349442;28;774;-66
2022/08/16 00:30:25;;;;;;;3.25;2.25;;;;;;;21.38;58.01;98810.63;347603;28;2425;-66
2022/08/16 00:30:40;;;;;;;3.58;2.20;;;;;;;21.39;57.93;98804.34;347843;28;1801;-66
2022/08/16 00:30:52;;;;;;;4.00;2.28;;;;;;;21.38;58.00;98803.50;347795;28;1063;-66
2022/08/16 00:31:04;;;;;;;3.55;2.30;;;;;;;21.37;57.86;98801.84;346486;28;1856;-66
2022/08/16 00:31:20;;;;;;;2.50;2.28;;;;;;;21.36;57.98;98805.47;346789;28;1055;-66
2022/08/16 00:31:36;;;;;;;2.75;2.30;;;;;;;21.36;57.68;98805.47;347461;28;1165;-66
2022/08/16 00:32:14;;;;;;;4.10;2.40;;;;;;;21.32;57.78;98804.91;346415;28;2417;-66
2022/08/16 00:32:29;;;;;;;3.42;2.30;;;;;;;21.32;57.91;98798.78;346111;28;1707;-65
2022/08/16 00:32:47;;;;;;;3.03;2.33;;;;;;;21.27;58.19;98801.84;347864;28;1798;-66
2022/08/16 00:33:01;;;;;;;2.70;2.42;;;;;;;21.31;57.75;98800.59;346807;28;1861;-66
2022/08/16 00:33:13;;;;;;;3.00;2.45;;;;;;;21.33;58.05;98805.75;346964;28;1846;-66
2022/08/16 00:33:25;;;;;;;2.80;2.40;;;;;;;21.28;57.94;98805.31;347637;28;1300;-66
2022/08/16 00:33:37;;;;;;;2.53;2.30;;;;;;;21.32;57.89;98804.06;347715;28;1068;-67
2022/08/16 00:33:49;;;;;;;3.22;2.45;;;;;;;21.32;57.86;98798.78;348144;28;1053;-66
2022/08/16 00:34:01;;;;;;;3.42;2.45;;;;;;;21.31;57.92;98795.31;346726;28;1869;-67
2022/08/16 00:34:16;;;;;;;3.20;2.40;;;;;;;21.31;58.16;98802.41;346630;28;1852;-66
2022/08/16 00:34:29;;;;;;;2.92;2.45;;;;;;;21.32;57.92;98802.25;346589;28;1220;-66
2022/08/16 00:35:02;;;;;;;3.40;2.30;;;;;;;21.27;57.99;98795.72;345709;28;1906;-66
2022/08/16 00:35:28;;;;;;;4.13;2.40;;;;;;;21.29;57.90;98799.09;346891;28;1607;-66
2022/08/16 00:35:45;;;;;;;4.72;2.47;;;;;;;21.32;58.08;98804.06;345793;28;1149;-67
2022/08/16 00:36:00;;;;;;;3.00;2.28;;;;;;;21.32;57.86;98798.78;345319;28;1875;-66
2022/08/16 00:36:12;;;;;;;2.63;2.30;;;;;;;21.34;58.06;98796.84;346228;28;1638;-66
2022/08/16 00:36:24;;;;;;;2.60;2.20;;;;;;;21.33;58.25;98803.94;346325;28;1079;-66
2022/08/16 00:36:36;;;;;;;2.65;2.28;;;;;;;21.33;57.91;98801.28;345582;28;1533;-66
2022/08/16 00:36:58;;;;;;;2.72;2.42;;;;;;;21.35;57.73;98798.53;345865;28;1837;-66
2022/08/16 00:37:15;;;;;;;2.72;2.20;;;;;;;21.38;58.21;98802.69;347080;28;1786;-65
2022/08/16 00:37:29;;;;;;;3.22;2.20;;;;;;;21.33;58.02;98800.47;347798;28;1041;-66
2022/08/16 00:38:03;;;;;;;2.55;2.35;;;;;;;21.29;58.23;98802.56;347376;28;1385;-66
2022/08/16 00:38:34;;;;;;;3.45;2.40;;;;;;;21.26;58.11;98810.75;346518;28;1546;-66
2022/08/16 00:38:54;;;;;;;2.75;2.35;;;;;;;21.26;58.18;98804.63;346646;28;1066;-65
2022/08/16 00:39:07;;;;;;;3.40;2.40;;;;;;;21.27;57.99;98798.34;346823;28;1371;-66
2022/08/16 00:39:26;;;;;;;4.32;2.50;;;;;;;21.29;58.14;98801.72;346467;28;1269;-65
2022/08/16 00:39:41;;;;;;;3.58;2.40;;;;;;;21.30;58.19;98806.03;346599;28;1093;-66
2022/08/16 00:39:53;;;;;;;2.75;2.35;;;;;;;21.31;58.05;98807.72;347142;28;1557;-66
2022/08/16 00:40:11;;;;;;;3.22;2.40;;;;;;;21.31;57.88;98808.53;346949;28;1843;-66
2022/08/16 00:40:49;;;;;;;5.13;2.35;;;;;;;21.35;57.68;98809.09;346479;28;1382;-66
2022/08/16 00:41:06;;;;;;;4.90;2.30;;;;;;;21.36;57.87;98805.47;346883;28;1830;-66
2022/08/16 00:41:19;;;;;;;5.72;2.30;;;;;;;21.37;58.00;98808.94;346747;28;999;-66
2022/08/16 00:41:33;;;;;;;3.83;2.33;;;;;;;21.36;58.14;98808.09;348082;28;1272;-66
2022/08/16 00:41:49;;;;;;;3.05;2.20;;;;;;;21.38;57.71;98811.44;347913;28;1080;-65
2022/08/16 00:42:01;;;;;;;3.17;2.20;;;;;;;21.38;58.15;98814.09;346528;28;1669;-67
2022/08/16 00:42:14;;;;;;;2.85;2.38;;;;;;;21.38;57.70;98818.53;347017;28;1829;-66
2022/08/16 00:42:42;;;;;;;2.55;2.30;;;;;;;21.36;58.23;98805.47;347252;28;1711;-67
2022/08/16 00:42:57;;;;;;;2.95;2.25;;;;;;;21.38;58.25;98824.66;347479;28;1318;-66
2022/08/16 00:43:15;;;;;;;2.83;2.30;;;;;;;21.37;57.61;98816.88;347806;28;1586;-66
2022/08/16 00:43:34;;;;;;;3.58;2.42;;;;;;;21.37;57.82;98811.56;346881;28;1065;-66
2022/08/16 00:43:54;;;;;;;5.80;2.60;;;;;;;21.37;57.97;98814.22;346299;28;1022;-64
2022/08/16 00:44:09;;;;;;;5.80;2.53;;;;;;;21.34;57.90;98817.97;347426;28;1484;-66
2022/08/16 00:44:22;;;;;;;4.38;2.50;;;;;;;21.34;58.01;98808.25;347409;28;1133;-66
2022/08/16 00:44:53;;;;;;;3.83;2.35;;;;;;;21.36;57.91;98816.03;346469;28;1304;-67
2022/08/16 00:45:35;;;;;;;4.25;2.60;;;;;;;21.37;57.71;98817.72;344901;28;1757;-66
2022/08/16 00:46:32;;;;;;;4.00;2.60;;;;;;;21.37;57.99;98807.16;347245;28;1509;-66
2022/08/16 00:46:56;;;;;;;3.17;2.58;;;;;;;21.38;57.95;98814.09;347132;28;1474;-66
2022/08/16 00:47:18;;;;;;;3.17;2.50;;;;;;;21.39;57.59;98813.13;346551;28;1948;-66
2022/08/16 00:47:34;;;;;;;3.45;2.40;;;;;;;21.41;57.84;98811.19;345919;28;1030;-67
2022/08/16 00:47:47;;;;;;;3.33;2.40;;;;;;;21.42;57.58;98804.06;346186;28;1304;-66
2022/08/16 00:48:04;;;;;;;3.53;2.55;;;;;;;21.45;57.87;98809.97;346166;28;1925;-65
2022/08/16 00:48:37;;;;;;;4.47;2.40;;;;;;;21.44;57.84;98813.56;346021;28;1585;-65
2022/08/16 00:48:56;;;;;;;3.33;2.40;;;;;;;21.43;58.23;98814.56;348073;28;1274;-65
2022/08/16 00:49:11;;;;;;;4.05;2.45;;;;;;;21.42;57.90;98804.91;348739;28;1495;-66
2022/08/16 00:49:32;;;;;;;4.78;2.50;;;;;;;21.43;58.00;98806.63;347674;28;1006;-66
2022/08/16 00:49:55;;;;;;;2.92;2.58;;;;;;;21.44;57.42;98804.81;347765;28;1107;-66
2022/08/16 00:50:07;;;;;;;3.42;2.55;;;;;;;21.45;57.67;98806.44;347693;28;1638;-66
2022/08/16 00:50:29;;;;;;;6.05;2.50;;;;;;;21.45;57.89;98804.66;348860;28;1296;-66
2022/08/16 00:50:47;;;;;;;2.70;2.50;;;;;;;21.46;58.05;98806.31;348702;28;1177;-66
2022/08/16 00:51:06;;;;;;;3.08;2.50;;;;;;;21.46;57.91;98806.31;347009;28;2039;-66
2022/08/16 00:51:22;;;;;;;2.78;2.38;;;;;;;21.45;58.19;98803.81;347252;28;1330;-66
2022/08/16 00:51:34;;;;;;;2.75;2.40;;;;;;;21.45;58.20;98799.38;347759;28;993;-65
2022/08/16 00:51:51;;;;;;;3.63;2.60;;;;;;;21.46;57.68;98801.03;347902;28;1160;-66
2022/08/16 00:52:07;;;;;;;3.25;2.50;;;;;;;21.47;57.60;98808.00;346568;28;1939;-65
2022/08/16 00:52:40;;;;;;;2.95;2.50;;;;;;;21.46;57.95;98803.69;346153;28;1917;-66
2022/08/16 00:53:10;;;;;;;2.88;2.50;;;;;;;21.45;57.53;98804.66;346742;28;2283;-67
2022/08/16 00:53:22;;;;;;;2.70;2.50;;;;;;;21.37;57.97;98807.16;346515;28;1034;-67
2022/08/16 00:53:34;;;;;;;2.75;2.40;;;;;;;21.35;57.96;98807.28;347461;28;1078;-66
2022/08/16 00:53:48;;;;;;;2.67;2.45;;;;;;;21.32;58.21;98809.34;347640;28;1116;-66
2022/08/16 00:54:02;;;;;;;3.05;2.50;;;;;;;21.32;58.08;98809.34;346675;28;1842;-66
2022/08/16 00:54:15;;;;;;;2.90;2.60;;;;;;;21.32;57.95;98804.06;346996;28;1816;-66
2022/08/16 00:54:32;;;;;;;2.75;2.55;;;;;;;21.30;58.31;98813.94;347502;28;1599;-67
2022/08/16 00:54:44;;;;;;;2.92;2.65;;;;;;;21.30;57.96;98806.03;347555;28;1365;-65
2022/08/16 00:54:59;;;;;;;2.85;2.53;;;;;;;21.28;58.20;98806.16;347440;28;2194;-65
2022/08/16 00:55:11;;;;;;;3.30;2.45;;;;;;;21.29;58.02;98801.72;347622;28;1715;-64
2022/08/16 00:55:27;;;;;;;3.08;2.58;;;;;;;21.27;58.05;98801.84;346614;28;1295;-66
2022/08/16 00:55:53;;;;;;;5.93;2.50;;;;;;;21.26;58.00;98804.63;346677;28;1102;-64
2022/08/16 00:56:10;;;;;;;6.82;2.28;;;;;;;21.26;58.03;98801.97;346640;28;1786;-65
2022/08/16 00:56:46;;;;;;;3.15;2.50;;;;;;;21.24;58.02;98803.94;346574;28;1548;-65
2022/08/16 00:57:09;;;;;;;3.92;2.58;;;;;;;21.24;57.88;98806.56;346421;28;1819;-65
2022/08/16 00:57:22;;;;;;;4.18;2.55;;;;;;;21.24;58.26;98801.28;347947;28;1125;-65
2022/08/16 00:57:36;;;;;;;3.10;2.58;;;;;;;21.23;57.97;98804.88;347586;28;1090;-65
2022/08/16 00:58:09;;;;;;;2.83;2.45;;;;;;;21.24;58.38;98807.41;347691;28;1755;-65
2022/08/16 00:58:29;;;;;;;3.20;2.40;;;;;;;21.22;58.41;98808.53;346320;28;1397;-65
2022/08/16 00:58:47;;;;;;;4.20;2.50;;;;;;;21.23;58.00;98812.81;347699;28;862;-65
2022/08/16 00:59:01;;;;;;;4.47;2.40;;;;;;;21.24;58.36;98811.88;346791;28;2092;-65
2022/08/16 00:59:15;;;;;;;3.95;2.15;;;;;;;21.22;58.21;98806.72;346819;28;1779;-65
2022/08/16 00:59:32;;;;;;;4.38;2.42;;;;;;;21.20;58.30;98805.19;347714;28;1515;-64
2022/08/16 00:59:45;;;;;;;3.50;2.65;;;;;;;21.20;58.37;98805.19;347345;28;863;-64
2022/08/16 01:00:10;;;;;;;3.20;2.50;;;;;;;21.18;57.92;98807.13;347667;28;1981;-65
2022/08/16 01:00:31;;;;;;;3.53;2.42;;;;;;;21.17;58.17;98810.72;346139;28;1219;-65
2022/08/16 01:00:46;;;;;;;2.95;2.58;;;;;;;21.15;58.20;98809.09;344983;28;1027;-65
2022/08/16 01:01:07;;;;;;;2.70;2.50;;;;;;;21.15;58.35;98809.09;345678;28;2107;-65
2022/08/16 01:01:22;;;;;;;2.78;2.40;;;;;;;21.13;58.09;98810.19;344163;28;1843;-64
2022/08/16 01:01:34;;;;;;;3.40;2.38;;;;;;;21.15;58.48;98808.25;346035;28;1149;-65
2022/08/16 01:01:46;;;;;;;4.10;2.50;;;;;;;21.14;58.19;98807.41;346893;28;1767;-64
2022/08/16 01:02:00;;;;;;;4.25;2.42;;;;;;;21.13;58.38;98805.75;346873;28;1807;-65
2022/08/16 01:02:32;;;;;;;3.13;2.40;;;;;;;21.09;58.35;98809.63;346780;28;1697;-65
2022/08/16 01:02:45;;;;;;;2.65;2.30;;;;;;;21.10;58.35;98811.28;346395;28;1774;-66
2022/08/16 01:03:07;;;;;;;2.70;2.50;;;;;;;21.08;58.36;98802.66;347511;28;1824;-65
2022/08/16 01:03:26;;;;;;;4.65;2.60;;;;;;;21.07;58.39;98805.47;347586;28;1336;-64
2022/08/16 01:03:46;;;;;;;4.68;2.42;;;;;;;21.07;58.28;98806.28;347558;28;1042;-65
2022/08/16 01:04:00;;;;;;;3.22;2.60;;;;;;;21.08;58.49;98807.13;346608;28;1756;-65
2022/08/16 01:04:20;;;;;;;3.80;2.70;;;;;;;21.09;58.52;98808.81;346866;28;1848;-65
2022/08/16 01:04:41;;;;;;;2.63;2.38;;;;;;;21.08;58.55;98807.13;347447;28;1866;-64
2022/08/16 01:05:13;;;;;;;2.60;2.40;;;;;;;21.07;58.40;98806.28;347426;28;1463;-65
2022/08/16 01:05:27;;;;;;;2.65;2.45;;;;;;;21.06;58.91;98809.06;346450;28;1201;-65
2022/08/16 01:05:41;;;;;;;3.53;2.53;;;;;;;21.04;58.93;98811.84;347245;28;4079;-64
2022/08/16 01:05:53;;;;;;;4.10;2.60;;;;;;;21.05;58.78;98816.16;347856;28;1296;-64
2022/08/16 01:06:06;;;;;;;3.60;2.55;;;;;;;21.01;58.87;98806.84;345570;28;2295;-65
2022/08/16 01:06:38;;;;;;;3.80;2.40;;;;;;;20.96;59.17;98819.63;345877;28;1752;-65
2022/08/16 01:07:10;;;;;;;3.25;2.45;;;;;;;20.96;59.66;98816.97;346585;28;2416;-66
2022/08/16 01:07:28;;;;;;;3.13;2.47;;;;;;;20.96;59.50;98819.63;346038;28;1059;-65
2022/08/16 01:08:02;;;;;;;3.25;2.50;;;;;;;20.96;59.45;98816.97;346827;28;1494;-66
2022/08/16 01:08:35;;;;;;;4.28;2.30;;;;;;;20.93;59.35;98814.63;347801;28;2191;-65
2022/08/16 01:08:51;;;;;;;3.95;2.55;;;;;;;20.92;59.42;98818.22;347416;28;1368;-65
2022/08/16 01:09:05;;;;;;;4.30;2.60;;;;;;;20.92;59.34;98821.69;348143;28;1320;-65
2022/08/16 01:09:19;;;;;;;4.22;2.50;;;;;;;20.89;59.59;98818.50;347812;28;1306;-65
2022/08/16 01:09:38;;;;;;;3.60;2.58;;;;;;;20.90;59.42;98817.53;347903;28;1202;-65
2022/08/16 01:09:54;;;;;;;4.03;2.63;;;;;;;20.88;59.64;98816.81;347819;28;955;-65
2022/08/16 01:10:06;;;;;;;3.50;2.45;;;;;;;20.85;59.54;98817.94;346591;28;1165;-65
2022/08/16 01:10:30;;;;;;;3.65;2.47;;;;;;;20.83;59.64;98819.06;346289;28;1030;-64
2022/08/16 01:10:45;;;;;;;4.60;2.55;;;;;;;20.84;59.63;98815.44;346918;28;1964;-65
2022/08/16 01:10:57;;;;;;;3.85;2.50;;;;;;;20.83;59.65;98819.06;346700;28;1348;-64
2022/08/16 01:11:13;;;;;;;3.75;2.50;;;;;;;20.84;59.75;98826.00;346522;28;1755;-64
2022/08/16 01:11:27;;;;;;;3.95;2.60;;;;;;;20.85;59.44;98822.41;347066;28;1420;-65
2022/08/16 01:11:40;;;;;;;3.00;2.50;;;;;;;20.86;59.42;98818.75;347772;28;1046;-65
2022/08/16 01:12:09;;;;;;;2.40;2.20;;;;;;;20.87;59.73;98820.44;347944;28;1097;-65
2022/08/16 01:12:21;;;;;;;2.47;2.28;;;;;;;20.88;59.52;98822.94;346389;28;1139;-65
2022/08/16 01:12:37;;;;;;;3.40;2.45;;;;;;;20.89;59.68;98824.63;346167;28;1051;-65
2022/08/16 01:12:50;;;;;;;3.40;2.40;;;;;;;20.89;59.62;98823.78;346328;28;1186;-65
2022/08/16 01:13:09;;;;;;;2.88;2.58;;;;;;;20.91;59.88;98827.13;346949;28;1363;-64
2022/08/16 01:13:29;;;;;;;2.60;2.40;;;;;;;20.91;59.45;98817.38;346444;28;1050;-65
2022/08/16 01:13:43;;;;;;;2.67;2.30;;;;;;;20.91;59.35;98821.84;346544;28;1074;-64
2022/08/16 01:14:03;;;;;;;3.00;2.45;;;;;;;20.89;59.45;98823.78;347699;28;1123;-65
2022/08/16 01:14:27;;;;;;;2.75;2.40;;;;;;;20.89;59.26;98823.78;346253;28;1067;-64
2022/08/16 01:14:50;;;;;;;3.22;2.35;;;;;;;20.90;59.56;98826.28;346060;28;1042;-65
2022/08/16 01:15:04;;;;;;;2.63;2.42;;;;;;;20.88;59.46;98827.38;346154;28;1569;-65
2022/08/16 01:15:19;;;;;;;2.72;2.53;;;;;;;20.88;59.67;98827.38;345298;28;1373;-64
2022/08/16 01:15:37;;;;;;;2.78;2.45;;;;;;;20.88;59.39;98824.75;346024;28;1352;-65
2022/08/16 01:16:04;;;;;;;2.53;2.30;;;;;;;20.87;59.73;98825.72;346746;28;1110;-65
2022/08/16 01:16:25;;;;;;;2.70;2.40;;;;;;;20.87;59.79;98820.44;346372;28;1025;-65
2022/08/16 01:16:41;;;;;;;3.08;2.63;;;;;;;20.89;59.53;98823.78;346202;28;1508;-65
2022/08/16 01:16:55;;;;;;;3.05;2.45;;;;;;;20.87;59.48;98826.56;346266;28;1256;-65
2022/08/16 01:17:08;;;;;;;2.65;2.22;;;;;;;20.87;59.48;98817.81;347242;28;1119;-64
2022/08/16 01:17:22;;;;;;;2.72;2.42;;;;;;;20.84;59.67;98821.53;347813;28;1904;-65
2022/08/16 01:17:36;;;;;;;3.00;2.50;;;;;;;20.82;59.59;98822.66;346122;28;1086;-64
2022/08/16 01:17:49;;;;;;;2.78;2.58;;;;;;;20.82;59.46;98823.47;346167;28;1011;-65
2022/08/16 01:18:09;;;;;;;2.88;2.55;;;;;;;20.82;59.74;98823.47;346964;28;1759;-65
2022/08/16 01:19:08;;;;;;;3.70;2.53;;;;;;;20.79;59.74;98828.22;346875;28;1992;-65
2022/08/16 01:19:31;;;;;;;2.63;2.20;;;;;;;20.75;60.11;98825.00;346407;28;1101;-65
2022/08/16 01:19:51;;;;;;;3.08;2.50;;;;;;;20.75;59.84;98822.38;346431;28;1177;-65
2022/08/16 01:20:10;;;;;;;2.65;2.30;;;;;;;20.77;60.11;98827.53;346223;28;1697;-65
2022/08/16 01:20:42;;;;;;;3.33;2.50;;;;;;;20.73;60.07;98824.31;346632;28;1069;-65
2022/08/16 01:21:11;;;;;;;2.85;2.30;;;;;;;20.73;60.23;98827.78;346270;28;883;-65
2022/08/16 01:21:46;;;;;;;3.13;2.40;;;;;;;20.74;60.04;98821.53;346391;28;1153;-65
2022/08/16 01:22:02;;;;;;;2.78;2.30;;;;;;;20.74;60.12;98821.53;346966;28;1752;-65
2022/08/16 01:22:49;;;;;;;3.00;2.70;;;;;;;20.72;60.16;98828.72;345900;28;1528;-65
2022/08/16 01:23:28;;;;;;;2.67;2.47;;;;;;;20.71;60.30;98827.06;347614;28;1246;-65
2022/08/16 01:24:19;;;;;;;3.88;2.58;;;;;;;20.71;60.07;98821.78;346496;28;1789;-65
2022/08/16 01:24:56;;;;;;;3.97;2.50;;;;;;;20.67;60.03;98825.69;346142;28;2456;-65
2022/08/16 01:25:22;;;;;;;2.90;2.50;;;;;;;20.66;60.28;98823.16;346942;28;2235;-64
2022/08/16 01:25:49;;;;;;;3.88;2.70;;;;;;;20.65;60.33;98832.06;346709;28;1969;-65
2022/08/16 01:26:23;;;;;;;3.47;2.50;;;;;;;20.63;60.40;98823.44;346699;28;1441;-66
2022/08/16 01:26:49;;;;;;;3.60;2.38;;;;;;;20.61;60.27;98820.94;346219;28;2176;-65
2022/08/16 01:27:33;;;;;;;2.45;2.25;;;;;;;20.63;60.07;98824.28;346997;28;1711;-65
2022/08/16 01:27:53;;;;;;;3.28;2.40;;;;;;;20.62;60.30;98830.50;347332;28;1234;-65
2022/08/16 01:28:11;;;;;;;3.25;2.40;;;;;;;20.61;60.34;98828.03;346859;28;1884;-64
2022/08/16 01:28:31;;;;;;;3.03;2.40;;;;;;;20.61;60.47;98831.50;346576;28;1109;-65
2022/08/16 01:28:50;;;;;;;2.83;2.50;;;;;;;20.60;60.75;98824.53;346302;28;1234;-65
2022/08/16 01:29:07;;;;;;;2.90;2.60;;;;;;;20.61;60.53;98826.22;347113;28;1222;-65
2022/08/16 01:29:28;;;;;;;3.58;2.65;;;;;;;20.58;60.89;98833.53;346941;28;2016;-64
2022/08/16 01:30:09;;;;;;;3.70;2.58;;;;;;;20.55;60.53;98832.00;344829;28;1997;-65